sensor_id;sensor_type;location;lat;lon;timestamp;pressure;altitude;pressure_sealevel;temperature;humidity
30618;BME280;17384;51.214;9.202;2023-02-16T00:01:18;99680.69;;;-1.13;91.85
30618;BME280;17384;51.214;9.202;2023-02-16T00:03:45;99676.56;;;-1.17;92.08
30618;BME280;17384;51.214;9.202;2023-02-16T00:06:11;99680.47;;;-1.10;92.11
30618;BME280;17384;51.214;9.202;2023-02-16T00:08:41;99665.81;;;-1.15;92.44
30618;BME280;17384;51.214;9.202;2023-02-16T00:11:33;99673.91;;;-1.17;92.45
30618;BME280;17384;51.214;9.202;2023-02-16T00:14:17;99677.06;;;-0.89;91.64
30618;BME280;17384;51.214;9.202;2023-02-16T00:16:43;99676.22;;;-0.90;90.87
30618;BME280;17384;51.214;9.202;2023-02-16T00:19:20;99660.25;;;-1.12;91.41
30618;BME280;17384;51.214;9.202;2023-02-16T00:21:47;99657.34;;;-1.20;91.76
30618;BME280;17384;51.214;9.202;2023-02-16T00:24:13;99661.22;;;-1.13;92.41
30618;BME280;17384;51.214;9.202;2023-02-16T00:26:41;99656.38;;;-1.19;92.25
30618;BME280;17384;51.214;9.202;2023-02-16T00:29:11;99656.50;;;-1.10;92.66
30618;BME280;17384;51.214;9.202;2023-02-16T00:31:38;99667.72;;;-1.06;92.97
30618;BME280;17384;51.214;9.202;2023-02-16T00:34:36;99659.50;;;-0.70;92.39
30618;BME280;17384;51.214;9.202;2023-02-16T00:37:07;99659.72;;;-0.61;92.04
30618;BME280;17384;51.214;9.202;2023-02-16T00:39:34;99652.81;;;-0.64;92.24
30618;BME280;17384;51.214;9.202;2023-02-16T00:44:33;99655.00;;;-0.80;92.14
30618;BME280;17384;51.214;9.202;2023-02-16T00:49:39;99660.56;;;-0.72;92.58
30618;BME280;17384;51.214;9.202;2023-02-16T00:54:46;99673.78;;;-0.71;93.19
30618;BME280;17384;51.214;9.202;2023-02-16T00:57:15;99659.13;;;-0.76;93.04
30618;BME280;17384;51.214;9.202;2023-02-16T00:59:41;99673.28;;;-0.64;93.33
30618;BME280;17384;51.214;9.202;2023-02-16T01:02:07;99665.19;;;-0.63;92.59
30618;BME280;17384;51.214;9.202;2023-02-16T01:04:32;99652.34;;;-0.69;92.92
30618;BME280;17384;51.214;9.202;2023-02-16T01:06:58;99665.41;;;-0.77;93.53
30618;BME280;17384;51.214;9.202;2023-02-16T01:09:42;99659.34;;;-0.57;93.26
30618;BME280;17384;51.214;9.202;2023-02-16T01:12:26;99670.47;;;-0.52;92.86
30618;BME280;17384;51.214;9.202;2023-02-16T01:14:53;99663.38;;;-0.62;93.13
30618;BME280;17384;51.214;9.202;2023-02-16T01:17:19;99658.88;;;-0.62;93.25
30618;BME280;17384;51.214;9.202;2023-02-16T01:19:45;99668.81;;;-0.64;93.45
30618;BME280;17384;51.214;9.202;2023-02-16T01:22:10;99664.94;;;-0.71;93.57
30618;BME280;17384;51.214;9.202;2023-02-16T01:24:36;99664.34;;;-0.63;93.77
30618;BME280;17384;51.214;9.202;2023-02-16T01:27:01;99664.22;;;-0.62;93.78
30618;BME280;17384;51.214;9.202;2023-02-16T01:29:27;99659.09;;;-0.54;93.38
30618;BME280;17384;51.214;9.202;2023-02-16T01:31:53;99655.72;;;-0.67;93.78
30618;BME280;17384;51.214;9.202;2023-02-16T01:34:19;99665.19;;;-0.63;94.17
30618;BME280;17384;51.214;9.202;2023-02-16T01:36:46;99654.75;;;-0.66;94.22
30618;BME280;17384;51.214;9.202;2023-02-16T01:39:17;99645.06;;;-0.67;94.44
30618;BME280;17384;51.214;9.202;2023-02-16T01:41:44;99649.69;;;-0.69;94.55
30618;BME280;17384;51.214;9.202;2023-02-16T01:44:14;99628.97;;;-0.65;94.79
30618;BME280;17384;51.214;9.202;2023-02-16T01:46:49;99642.41;;;-0.67;94.93
30618;BME280;17384;51.214;9.202;2023-02-16T01:49:17;99629.94;;;-0.55;94.85
30618;BME280;17384;51.214;9.202;2023-02-16T01:54:48;99627.75;;;-0.61;94.71
30618;BME280;17384;51.214;9.202;2023-02-16T02:03:29;99633.44;;;-0.55;94.79
30618;BME280;17384;51.214;9.202;2023-02-16T02:06:18;99623.75;;;-0.56;95.00
30618;BME280;17384;51.214;9.202;2023-02-16T02:09:01;99624.84;;;-0.58;94.96
30618;BME280;17384;51.214;9.202;2023-02-16T02:11:33;99614.31;;;-0.60;95.14
30618;BME280;17384;51.214;9.202;2023-02-16T02:14:21;99610.91;;;-0.62;95.00
30618;BME280;17384;51.214;9.202;2023-02-16T02:17:04;99598.94;;;-0.68;95.27
30618;BME280;17384;51.214;9.202;2023-02-16T02:19:41;99604.88;;;-0.64;95.43
30618;BME280;17384;51.214;9.202;2023-02-16T02:22:31;99601.22;;;-0.63;95.45
30618;BME280;17384;51.214;9.202;2023-02-16T02:30:39;99602.88;;;-0.51;94.87
30618;BME280;17384;51.214;9.202;2023-02-16T02:33:19;99586.88;;;-0.51;94.93
30618;BME280;17384;51.214;9.202;2023-02-16T02:38:43;99586.75;;;-0.49;94.79
30618;BME280;17384;51.214;9.202;2023-02-16T02:41:34;99592.94;;;-0.49;94.50
30618;BME280;17384;51.214;9.202;2023-02-16T02:44:23;99588.38;;;-0.58;94.55
30618;BME280;17384;51.214;9.202;2023-02-16T02:46:51;99586.09;;;-0.62;94.86
30618;BME280;17384;51.214;9.202;2023-02-16T02:49:17;99601.16;;;-0.41;94.72
30618;BME280;17384;51.214;9.202;2023-02-16T02:51:42;99579.19;;;-0.65;94.65
30618;BME280;17384;51.214;9.202;2023-02-16T02:57:02;99587.78;;;-0.61;95.25
30618;BME280;17384;51.214;9.202;2023-02-16T02:59:52;99581.13;;;-0.67;95.57
30618;BME280;17384;51.214;9.202;2023-02-16T03:02:38;99588.38;;;-0.58;95.29
30618;BME280;17384;51.214;9.202;2023-02-16T03:05:06;99594.69;;;-0.70;95.28
30618;BME280;17384;51.214;9.202;2023-02-16T03:07:35;99595.19;;;-0.65;95.49
30618;BME280;17384;51.214;9.202;2023-02-16T03:10:13;99602.44;;;-0.67;95.54
30618;BME280;17384;51.214;9.202;2023-02-16T03:12:59;99595.66;;;-0.60;95.33
30618;BME280;17384;51.214;9.202;2023-02-16T03:15:27;99585.31;;;-0.53;95.23
30618;BME280;17384;51.214;9.202;2023-02-16T03:17:55;99600.97;;;-0.60;94.29
30618;BME280;17384;51.214;9.202;2023-02-16T03:20:41;99595.66;;;-0.60;94.17
30618;BME280;17384;51.214;9.202;2023-02-16T03:23:27;99591.25;;;-0.50;93.86
30618;BME280;17384;51.214;9.202;2023-02-16T03:26:12;99596.13;;;-0.55;93.74
30618;BME280;17384;51.214;9.202;2023-02-16T03:28:58;99591.91;;;-0.69;93.87
30618;BME280;17384;51.214;9.202;2023-02-16T03:31:41;99586.47;;;-0.78;94.34
30618;BME280;17384;51.214;9.202;2023-02-16T03:34:07;99598.38;;;-0.82;94.55
30618;BME280;17384;51.214;9.202;2023-02-16T03:36:35;99602.69;;;-0.81;94.66
30618;BME280;17384;51.214;9.202;2023-02-16T03:39:03;99592.03;;;-0.70;94.47
30618;BME280;17384;51.214;9.202;2023-02-16T03:41:41;99589.25;;;-0.69;94.23
30618;BME280;17384;51.214;9.202;2023-02-16T03:44:07;99595.06;;;-0.75;94.10
30618;BME280;17384;51.214;9.202;2023-02-16T03:46:33;99583.31;;;-0.72;94.59
30618;BME280;17384;51.214;9.202;2023-02-16T03:48:59;99593.06;;;-0.82;94.35
30618;BME280;17384;51.214;9.202;2023-02-16T03:51:24;99585.78;;;-0.91;94.45
30618;BME280;17384;51.214;9.202;2023-02-16T03:53:51;99593.06;;;-0.93;94.75
30618;BME280;17384;51.214;9.202;2023-02-16T03:56:16;99592.09;;;-0.92;95.11
30618;BME280;17384;51.214;9.202;2023-02-16T03:58:42;99589.53;;;-0.83;95.26
30618;BME280;17384;51.214;9.202;2023-02-16T04:01:08;99584.53;;;-0.76;94.63
30618;BME280;17384;51.214;9.202;2023-02-16T04:03:33;99577.94;;;-1.04;94.86
30618;BME280;17384;51.214;9.202;2023-02-16T04:05:59;99585.31;;;-0.96;95.27
30618;BME280;17384;51.214;9.202;2023-02-16T04:08:25;99581.69;;;-0.95;95.37
30618;BME280;17384;51.214;9.202;2023-02-16T04:10:51;99588.81;;;-0.96;95.52
30618;BME280;17384;51.214;9.202;2023-02-16T04:13:16;99589.66;;;-0.84;95.61
30618;BME280;17384;51.214;9.202;2023-02-16T04:15:42;99598.88;;;-0.99;95.40
30618;BME280;17384;51.214;9.202;2023-02-16T04:18:08;99608.56;;;-0.87;95.24
30618;BME280;17384;51.214;9.202;2023-02-16T04:20:34;99609.63;;;-0.90;95.04
30618;BME280;17384;51.214;9.202;2023-02-16T04:23:00;99593.78;;;-1.03;95.57
30618;BME280;17384;51.214;9.202;2023-02-16T04:25:26;99590.50;;;-0.84;95.42
30618;BME280;17384;51.214;9.202;2023-02-16T04:27:53;99591.13;;;-0.91;95.22
30618;BME280;17384;51.214;9.202;2023-02-16T04:30:25;99598.63;;;-0.96;95.51
30618;BME280;17384;51.214;9.202;2023-02-16T04:32:51;99596.28;;;-0.79;94.99
30618;BME280;17384;51.214;9.202;2023-02-16T04:35:18;99592.34;;;-0.95;95.21
30618;BME280;17384;51.214;9.202;2023-02-16T04:37:44;99590.63;;;-0.96;95.09
30618;BME280;17384;51.214;9.202;2023-02-16T04:40:14;99595.00;;;-0.95;95.39
30618;BME280;17384;51.214;9.202;2023-02-16T04:42:40;99596.81;;;-0.96;95.63
30618;BME280;17384;51.214;9.202;2023-02-16T04:45:06;99582.91;;;-1.11;95.57
30618;BME280;17384;51.214;9.202;2023-02-16T04:47:32;99573.13;;;-1.10;95.61
30618;BME280;17384;51.214;9.202;2023-02-16T04:49:58;99582.19;;;-1.13;95.86
30618;BME280;17384;51.214;9.202;2023-02-16T04:52:24;99582.78;;;-1.20;96.13
30618;BME280;17384;51.214;9.202;2023-02-16T04:54:49;99570.09;;;-1.17;96.26
30618;BME280;17384;51.214;9.202;2023-02-16T04:57:15;99574.28;;;-0.92;95.85
30618;BME280;17384;51.214;9.202;2023-02-16T04:59:41;99566.44;;;-0.93;95.31
30618;BME280;17384;51.214;9.202;2023-02-16T05:02:06;99571.63;;;-1.03;95.27
30618;BME280;17384;51.214;9.202;2023-02-16T05:04:32;99562.81;;;-1.04;95.48
30618;BME280;17384;51.214;9.202;2023-02-16T05:06:57;99569.34;;;-0.96;95.78
30618;BME280;17384;51.214;9.202;2023-02-16T05:09:23;99580.22;;;-0.99;95.64
30618;BME280;17384;51.214;9.202;2023-02-16T05:11:48;99576.00;;;-0.91;95.41
30618;BME280;17384;51.214;9.202;2023-02-16T05:14:34;99572.84;;;-0.96;95.25
30618;BME280;17384;51.214;9.202;2023-02-16T05:17:21;99583.78;;;-1.10;95.62
30618;BME280;17384;51.214;9.202;2023-02-16T05:19:55;99579.53;;;-1.13;95.72
30618;BME280;17384;51.214;9.202;2023-02-16T05:22:21;99573.59;;;-1.16;95.87
30618;BME280;17384;51.214;9.202;2023-02-16T05:24:47;99568.59;;;-0.98;96.16
30618;BME280;17384;51.214;9.202;2023-02-16T05:27:16;99566.69;;;-1.08;96.11
30618;BME280;17384;51.214;9.202;2023-02-16T05:29:42;99555.19;;;-1.08;95.95
30618;BME280;17384;51.214;9.202;2023-02-16T05:32:07;99560.38;;;-1.07;96.00
30618;BME280;17384;51.214;9.202;2023-02-16T05:34:33;99558.25;;;-1.13;96.12
30618;BME280;17384;51.214;9.202;2023-02-16T05:36:59;99564.00;;;-1.08;96.04
30618;BME280;17384;51.214;9.202;2023-02-16T05:39:25;99564.00;;;-0.96;95.66
30618;BME280;17384;51.214;9.202;2023-02-16T05:41:50;99563.88;;;-0.95;95.14
30618;BME280;17384;51.214;9.202;2023-02-16T05:44:16;99571.03;;;-0.95;95.28
30618;BME280;17384;51.214;9.202;2023-02-16T05:46:42;99566.44;;;-0.93;95.18
30618;BME280;17384;51.214;9.202;2023-02-16T05:49:08;99568.97;;;-0.92;95.39
30618;BME280;17384;51.214;9.202;2023-02-16T05:51:35;99573.44;;;-0.92;95.40
30618;BME280;17384;51.214;9.202;2023-02-16T05:54:01;99572.72;;;-0.83;95.52
30618;BME280;17384;51.214;9.202;2023-02-16T05:56:27;99570.16;;;-0.85;95.04
30618;BME280;17384;51.214;9.202;2023-02-16T05:58:53;99571.88;;;-0.95;95.04
30618;BME280;17384;51.214;9.202;2023-02-16T06:01:19;99579.88;;;-0.95;95.30
30618;BME280;17384;51.214;9.202;2023-02-16T06:03:45;99578.16;;;-1.07;95.39
30618;BME280;17384;51.214;9.202;2023-02-16T06:06:10;99588.94;;;-1.09;95.57
30618;BME280;17384;51.214;9.202;2023-02-16T06:08:37;99584.47;;;-1.08;95.64
30618;BME280;17384;51.214;9.202;2023-02-16T06:11:04;99587.53;;;-1.13;95.79
30618;BME280;17384;51.214;9.202;2023-02-16T06:13:52;99590.88;;;-0.88;95.73
30618;BME280;17384;51.214;9.202;2023-02-16T06:16:23;99606.38;;;-0.82;94.93
30618;BME280;17384;51.214;9.202;2023-02-16T06:18:49;99602.59;;;-0.80;94.60
30618;BME280;17384;51.214;9.202;2023-02-16T06:21:14;99603.94;;;-0.85;94.21
30618;BME280;17384;51.214;9.202;2023-02-16T06:23:39;99589.06;;;-0.99;94.99
30618;BME280;17384;51.214;9.202;2023-02-16T06:26:05;99587.59;;;-1.03;94.92
30618;BME280;17384;51.214;9.202;2023-02-16T06:28:30;99597.78;;;-0.97;94.99
30618;BME280;17384;51.214;9.202;2023-02-16T06:30:56;99597.78;;;-1.08;94.94
30618;BME280;17384;51.214;9.202;2023-02-16T06:33:22;99584.97;;;-1.14;95.29
30618;BME280;17384;51.214;9.202;2023-02-16T06:35:47;99609.06;;;-1.16;94.91
30618;BME280;17384;51.214;9.202;2023-02-16T06:38:13;99599.97;;;-1.13;95.31
30618;BME280;17384;51.214;9.202;2023-02-16T06:40:38;99591.47;;;-1.07;94.94
30618;BME280;17384;51.214;9.202;2023-02-16T06:43:04;99597.44;;;-1.15;95.00
30618;BME280;17384;51.214;9.202;2023-02-16T06:45:29;99597.81;;;-1.19;95.20
30618;BME280;17384;51.214;9.202;2023-02-16T06:47:55;99593.69;;;-1.12;95.42
30618;BME280;17384;51.214;9.202;2023-02-16T06:50:20;99595.03;;;-1.18;95.31
30618;BME280;17384;51.214;9.202;2023-02-16T06:52:46;99587.50;;;-1.24;95.23
30618;BME280;17384;51.214;9.202;2023-02-16T06:55:11;99578.09;;;-1.17;95.31
30618;BME280;17384;51.214;9.202;2023-02-16T06:57:37;99588.97;;;-1.31;95.49
30618;BME280;17384;51.214;9.202;2023-02-16T07:00:04;99592.34;;;-1.29;95.51
30618;BME280;17384;51.214;9.202;2023-02-16T07:02:30;99590.53;;;-1.17;95.67
30618;BME280;17384;51.214;9.202;2023-02-16T07:04:56;99588.72;;;-1.28;95.68
30618;BME280;17384;51.214;9.202;2023-02-16T07:07:21;99595.75;;;-1.16;95.43
30618;BME280;17384;51.214;9.202;2023-02-16T07:09:49;99611.22;;;-0.98;95.20
30618;BME280;17384;51.214;9.202;2023-02-16T07:12:14;99603.72;;;-1.05;95.28
30618;BME280;17384;51.214;9.202;2023-02-16T07:14:40;99597.19;;;-1.00;95.29
30618;BME280;17384;51.214;9.202;2023-02-16T07:17:05;99584.47;;;-1.08;95.33
30618;BME280;17384;51.214;9.202;2023-02-16T07:19:31;99599.34;;;-1.06;95.19
30618;BME280;17384;51.214;9.202;2023-02-16T07:21:58;99595.00;;;-0.95;95.45
30618;BME280;17384;51.214;9.202;2023-02-16T07:26:54;99596.31;;;-1.01;95.02
30618;BME280;17384;51.214;9.202;2023-02-16T07:29:19;99621.53;;;-1.16;94.95
30618;BME280;17384;51.214;9.202;2023-02-16T07:31:45;99615.09;;;-1.14;95.29
30618;BME280;17384;51.214;9.202;2023-02-16T07:34:10;99610.50;;;-1.12;95.36
30618;BME280;17384;51.214;9.202;2023-02-16T07:36:36;99602.41;;;-1.10;94.94
30618;BME280;17384;51.214;9.202;2023-02-16T07:39:02;99601.56;;;-1.11;95.27
30618;BME280;17384;51.214;9.202;2023-02-16T07:41:28;99602.00;;;-0.94;94.94
30618;BME280;17384;51.214;9.202;2023-02-16T07:43:54;99620.66;;;-1.06;95.03
30618;BME280;17384;51.214;9.202;2023-02-16T07:46:20;99620.66;;;-0.83;94.60
30618;BME280;17384;51.214;9.202;2023-02-16T07:48:48;99623.06;;;-1.03;94.35
30618;BME280;17384;51.214;9.202;2023-02-16T07:51:23;99625.97;;;-1.06;94.78
30618;BME280;17384;51.214;9.202;2023-02-16T07:53:50;99623.44;;;-1.07;95.10
30618;BME280;17384;51.214;9.202;2023-02-16T07:56:29;99629.88;;;-1.10;95.26
30618;BME280;17384;51.214;9.202;2023-02-16T07:58:57;99622.59;;;-0.96;95.39
30618;BME280;17384;51.214;9.202;2023-02-16T08:01:24;99638.34;;;-0.82;94.75
30618;BME280;17384;51.214;9.202;2023-02-16T08:03:50;99625.00;;;-0.93;94.72
30618;BME280;17384;51.214;9.202;2023-02-16T08:06:16;99626.94;;;-0.84;94.84
30618;BME280;17384;51.214;9.202;2023-02-16T08:08:42;99634.47;;;-0.89;94.79
30618;BME280;17384;51.214;9.202;2023-02-16T08:11:10;99638.41;;;-0.73;94.64
30618;BME280;17384;51.214;9.202;2023-02-16T08:13:36;99638.19;;;-0.81;94.42
30618;BME280;17384;51.214;9.202;2023-02-16T08:16:01;99636.50;;;-0.93;94.55
30618;BME280;17384;51.214;9.202;2023-02-16T08:18:29;99627.91;;;-0.96;94.69
30618;BME280;17384;51.214;9.202;2023-02-16T08:20:54;99626.34;;;-0.88;94.69
30618;BME280;17384;51.214;9.202;2023-02-16T08:23:21;99641.13;;;-0.95;94.75
30618;BME280;17384;51.214;9.202;2023-02-16T08:25:47;99634.91;;;-0.73;94.53
30618;BME280;17384;51.214;9.202;2023-02-16T08:28:12;99626.69;;;-0.81;94.14
30618;BME280;17384;51.214;9.202;2023-02-16T08:30:39;99619.97;;;-0.53;94.37
30618;BME280;17384;51.214;9.202;2023-02-16T08:33:04;99619.38;;;-0.57;93.48
30618;BME280;17384;51.214;9.202;2023-02-16T08:35:30;99611.28;;;-0.66;93.44
30618;BME280;17384;51.214;9.202;2023-02-16T08:38:00;99616.38;;;-0.63;93.52
30618;BME280;17384;51.214;9.202;2023-02-16T08:40:26;99614.56;;;-0.63;93.14
30618;BME280;17384;51.214;9.202;2023-02-16T08:42:52;99620.13;;;-0.55;93.41
30618;BME280;17384;51.214;9.202;2023-02-16T08:45:18;99622.72;;;-0.44;93.40
30618;BME280;17384;51.214;9.202;2023-02-16T08:47:44;99627.09;;;-0.43;92.67
30618;BME280;17384;51.214;9.202;2023-02-16T08:50:10;99640.66;;;-0.46;93.06
30618;BME280;17384;51.214;9.202;2023-02-16T08:52:36;99634.25;;;-0.54;93.05
30618;BME280;17384;51.214;9.202;2023-02-16T08:55:02;99642.59;;;-0.37;92.76
30618;BME280;17384;51.214;9.202;2023-02-16T08:57:32;99640.16;;;-0.40;92.58
30618;BME280;17384;51.214;9.202;2023-02-16T08:59:58;99629.47;;;-0.28;92.33
30618;BME280;17384;51.214;9.202;2023-02-16T09:02:42;99646.16;;;-0.26;92.49
30618;BME280;17384;51.214;9.202;2023-02-16T09:05:08;99644.75;;;-0.30;92.25
30618;BME280;17384;51.214;9.202;2023-02-16T09:07:34;99632.84;;;-0.26;92.19
30618;BME280;17384;51.214;9.202;2023-02-16T09:10:01;99640.09;;;-0.17;92.09
30618;BME280;17384;51.214;9.202;2023-02-16T09:12:27;99638.66;;;-0.21;91.30
30618;BME280;17384;51.214;9.202;2023-02-16T09:14:54;99643.47;;;-0.15;91.85
30618;BME280;17384;51.214;9.202;2023-02-16T09:17:19;99625.78;;;-0.16;91.69
30618;BME280;17384;51.214;9.202;2023-02-16T09:19:45;99630.88;;;-0.13;91.12
30618;BME280;17384;51.214;9.202;2023-02-16T09:22:10;99637.66;;;-0.09;91.52
30618;BME280;17384;51.214;9.202;2023-02-16T09:24:37;99642.00;;;-0.08;91.25
30618;BME280;17384;51.214;9.202;2023-02-16T09:27:02;99647.88;;;0.07;91.36
30618;BME280;17384;51.214;9.202;2023-02-16T09:29:28;99638.00;;;0.18;90.75
30618;BME280;17384;51.214;9.202;2023-02-16T09:31:53;99640.03;;;0.47;90.95
30618;BME280;17384;51.214;9.202;2023-02-16T09:34:21;99637.81;;;0.52;89.10
30618;BME280;17384;51.214;9.202;2023-02-16T09:36:48;99637.69;;;0.53;89.75
30618;BME280;17384;51.214;9.202;2023-02-16T09:39:15;99636.75;;;0.64;89.25
30618;BME280;17384;51.214;9.202;2023-02-16T09:47:23;99647.41;;;0.64;88.43
30618;BME280;17384;51.214;9.202;2023-02-16T09:49:50;99634.47;;;0.59;88.60
30618;BME280;17384;51.214;9.202;2023-02-16T09:55:07;99632.06;;;0.87;88.65
30618;BME280;17384;51.214;9.202;2023-02-16T10:03:11;99643.72;;;0.86;88.05
30618;BME280;17384;51.214;9.202;2023-02-16T10:08:55;99619.81;;;1.15;87.67
30618;BME280;17384;51.214;9.202;2023-02-16T10:14:30;99626.34;;;1.31;87.27
30618;BME280;17384;51.214;9.202;2023-02-16T10:17:02;99626.50;;;1.40;86.26
30618;BME280;17384;51.214;9.202;2023-02-16T10:19:54;99616.44;;;1.62;86.29
30618;BME280;17384;51.214;9.202;2023-02-16T10:25:03;99622.47;;;1.93;85.34
30618;BME280;17384;51.214;9.202;2023-02-16T10:27:36;99608.09;;;2.33;84.75
30618;BME280;17384;51.214;9.202;2023-02-16T10:30:13;99607.91;;;2.54;83.85
30618;BME280;17384;51.214;9.202;2023-02-16T10:32:52;99614.94;;;2.55;83.21
30618;BME280;17384;51.214;9.202;2023-02-16T10:35:24;99619.72;;;2.70;81.97
30618;BME280;17384;51.214;9.202;2023-02-16T10:40:48;99607.69;;;3.12;80.39
30618;BME280;17384;51.214;9.202;2023-02-16T10:46:09;99610.78;;;3.17;79.93
30618;BME280;17384;51.214;9.202;2023-02-16T10:48:36;99591.69;;;3.47;79.28
30618;BME280;17384;51.214;9.202;2023-02-16T10:51:11;99595.56;;;3.35;79.97
30618;BME280;17384;51.214;9.202;2023-02-16T10:53:45;99587.53;;;3.08;80.89
30618;BME280;17384;51.214;9.202;2023-02-16T10:59:05;99587.28;;;3.28;79.61
30618;BME280;17384;51.214;9.202;2023-02-16T11:01:42;99572.50;;;3.24;80.24
30618;BME280;17384;51.214;9.202;2023-02-16T11:04:37;99580.75;;;3.13;80.21
30618;BME280;17384;51.214;9.202;2023-02-16T11:07:07;99586.00;;;3.32;80.17
30618;BME280;17384;51.214;9.202;2023-02-16T11:09:33;99580.75;;;3.58;79.64
30618;BME280;17384;51.214;9.202;2023-02-16T11:12:00;99574.72;;;3.74;78.43
30618;BME280;17384;51.214;9.202;2023-02-16T11:14:29;99587.31;;;4.17;78.59
30618;BME280;17384;51.214;9.202;2023-02-16T11:17:06;99584.41;;;4.11;75.38
30618;BME280;17384;51.214;9.202;2023-02-16T11:19:36;99580.13;;;4.43;75.50
30618;BME280;17384;51.214;9.202;2023-02-16T11:22:03;99566.06;;;4.75;74.78
30618;BME280;17384;51.214;9.202;2023-02-16T11:24:36;99575.03;;;4.84;73.68
30618;BME280;17384;51.214;9.202;2023-02-16T11:27:18;99576.88;;;4.84;74.25
30618;BME280;17384;51.214;9.202;2023-02-16T11:29:44;99567.34;;;4.89;73.72
30618;BME280;17384;51.214;9.202;2023-02-16T11:32:11;99564.47;;;5.33;73.61
30618;BME280;17384;51.214;9.202;2023-02-16T11:37:27;99559.00;;;5.08;73.85
30618;BME280;17384;51.214;9.202;2023-02-16T11:39:58;99555.06;;;4.87;74.46
30618;BME280;17384;51.214;9.202;2023-02-16T11:44:56;99560.84;;;4.74;74.46
30618;BME280;17384;51.214;9.202;2023-02-16T11:47:26;99569.69;;;4.92;74.13
30618;BME280;17384;51.214;9.202;2023-02-16T11:50:22;99558.53;;;5.88;71.57
30618;BME280;17384;51.214;9.202;2023-02-16T11:52:52;99547.78;;;6.20;68.32
30618;BME280;17384;51.214;9.202;2023-02-16T11:55:22;99542.25;;;5.97;68.30
30618;BME280;17384;51.214;9.202;2023-02-16T11:57:48;99545.38;;;5.60;69.42
30618;BME280;17384;51.214;9.202;2023-02-16T12:00:20;99538.00;;;5.87;69.49
30618;BME280;17384;51.214;9.202;2023-02-16T12:19:42;99537.91;;;8.45;60.73
30618;BME280;17384;51.214;9.202;2023-02-16T12:27:55;99529.16;;;7.75;62.45
30618;BME280;17384;51.214;9.202;2023-02-16T12:30:42;99522.59;;;7.16;65.18
30618;BME280;17384;51.214;9.202;2023-02-16T12:39:30;99510.72;;;6.38;69.11
30618;BME280;17384;51.214;9.202;2023-02-16T12:45:19;99512.22;;;6.33;68.97
30618;BME280;17384;51.214;9.202;2023-02-16T12:47:53;99511.28;;;6.01;69.47
30618;BME280;17384;51.214;9.202;2023-02-16T12:50:31;99517.84;;;5.99;69.61
30618;BME280;17384;51.214;9.202;2023-02-16T12:55:43;99500.13;;;5.72;70.22
30618;BME280;17384;51.214;9.202;2023-02-16T12:58:20;99507.00;;;5.74;71.30
30618;BME280;17384;51.214;9.202;2023-02-16T13:00:54;99501.59;;;5.50;71.71
30618;BME280;17384;51.214;9.202;2023-02-16T13:06:20;99491.00;;;5.40;71.85
30618;BME280;17384;51.214;9.202;2023-02-16T13:11:37;99485.31;;;4.93;74.05
30618;BME280;17384;51.214;9.202;2023-02-16T13:14:12;99484.50;;;5.01;73.71
30618;BME280;17384;51.214;9.202;2023-02-16T13:17:00;99487.34;;;4.91;73.90
30618;BME280;17384;51.214;9.202;2023-02-16T13:19:27;99470.47;;;4.73;74.40
30618;BME280;17384;51.214;9.202;2023-02-16T13:24:22;99474.16;;;4.72;75.07
30618;BME280;17384;51.214;9.202;2023-02-16T13:29:50;99466.00;;;4.48;76.71
30618;BME280;17384;51.214;9.202;2023-02-16T13:43:46;99469.16;;;4.77;75.96
30618;BME280;17384;51.214;9.202;2023-02-16T13:46:37;99458.88;;;4.72;76.28
30618;BME280;17384;51.214;9.202;2023-02-16T13:49:04;99465.34;;;4.54;76.84
30618;BME280;17384;51.214;9.202;2023-02-16T13:51:42;99467.63;;;4.40;77.70
30618;BME280;17384;51.214;9.202;2023-02-16T13:54:37;99459.66;;;4.57;76.77
30618;BME280;17384;51.214;9.202;2023-02-16T13:57:10;99449.22;;;4.54;77.08
30618;BME280;17384;51.214;9.202;2023-02-16T14:02:02;99449.81;;;4.39;77.72
30618;BME280;17384;51.214;9.202;2023-02-16T14:14:44;99438.09;;;4.15;79.52
30618;BME280;17384;51.214;9.202;2023-02-16T14:19:48;99452.91;;;3.93;80.31
30618;BME280;17384;51.214;9.202;2023-02-16T14:22:18;99442.78;;;3.87;80.62
30618;BME280;17384;51.214;9.202;2023-02-16T14:24:53;99455.91;;;3.90;80.65
30618;BME280;17384;51.214;9.202;2023-02-16T14:27:46;99448.66;;;3.82;80.50
30618;BME280;17384;51.214;9.202;2023-02-16T14:33:05;99454.50;;;3.78;80.90
30618;BME280;17384;51.214;9.202;2023-02-16T14:38:34;99469.22;;;3.73;80.96
30618;BME280;17384;51.214;9.202;2023-02-16T14:41:06;99461.16;;;3.73;80.63
30618;BME280;17384;51.214;9.202;2023-02-16T15:05:29;99399.75;;;3.70;82.69
30618;BME280;17384;51.214;9.202;2023-02-16T15:10:42;99394.00;;;3.65;82.58
30618;BME280;17384;51.214;9.202;2023-02-16T15:13:29;99382.66;;;3.71;82.22
30618;BME280;17384;51.214;9.202;2023-02-16T15:15:57;99383.19;;;3.75;82.05
30618;BME280;17384;51.214;9.202;2023-02-16T15:18:30;99379.19;;;3.79;82.13
30618;BME280;17384;51.214;9.202;2023-02-16T15:20:57;99386.13;;;3.90;81.65
30618;BME280;17384;51.214;9.202;2023-02-16T15:23:25;99384.91;;;3.84;82.72
30618;BME280;17384;51.214;9.202;2023-02-16T15:28:30;99393.63;;;3.86;82.68
30618;BME280;17384;51.214;9.202;2023-02-16T15:31:02;99388.09;;;3.80;82.99
30618;BME280;17384;51.214;9.202;2023-02-16T15:33:42;99391.41;;;3.73;83.60
30618;BME280;17384;51.214;9.202;2023-02-16T15:36:11;99385.41;;;3.80;83.17
30618;BME280;17384;51.214;9.202;2023-02-16T15:38:58;99391.34;;;3.65;83.33
30618;BME280;17384;51.214;9.202;2023-02-16T15:41:35;99398.69;;;3.63;82.89
30618;BME280;17384;51.214;9.202;2023-02-16T15:44:02;99379.91;;;3.63;83.40
30618;BME280;17384;51.214;9.202;2023-02-16T15:46:34;99379.81;;;3.73;83.39
30618;BME280;17384;51.214;9.202;2023-02-16T15:49:24;99362.66;;;3.66;83.01
30618;BME280;17384;51.214;9.202;2023-02-16T15:51:52;99370.56;;;3.67;83.23
30618;BME280;17384;51.214;9.202;2023-02-16T15:54:31;99361.56;;;3.77;82.68
30618;BME280;17384;51.214;9.202;2023-02-16T15:57:03;99369.19;;;3.63;82.58
30618;BME280;17384;51.214;9.202;2023-02-16T15:59:38;99368.97;;;3.57;83.42
30618;BME280;17384;51.214;9.202;2023-02-16T16:04:31;99371.81;;;3.55;83.44
30618;BME280;17384;51.214;9.202;2023-02-16T16:07:04;99373.91;;;3.69;83.12
30618;BME280;17384;51.214;9.202;2023-02-16T16:09:31;99383.59;;;3.62;82.72
30618;BME280;17384;51.214;9.202;2023-02-16T16:12:01;99385.81;;;3.67;82.61
30618;BME280;17384;51.214;9.202;2023-02-16T16:14:28;99387.75;;;3.57;82.67